Portada
METAR-TAF:

METAR-TAF

Aeroports :

Rodrigues, Maurici

latitud: 19-41S, longitud: 063-25E, altitud: 58 m

METAR: manca

Hora: 17:50 (13:50 UTC)

Pronòstic

L'informe es va fer fa 2 hores i 35 minuts, a les 11:15 UTC
Pronòstic vàlid del 21 a les 12 UTC al 22 a les 06 UTC
Vent 20 kt del Sud/Sud-Est amb ràfegues de 32 kt
Visibilitat 10 km o més
Núvols disperses a una alçada de 1700 ft
Temporalment
l' 21 a les 15 UTC al 22 a les 03 UTC
Visibilitat: 7000 m
Escasses núvols a una alçada de 1000 ft
Núvols disperses a una alçada de 1500 ft
Cel ennuvolat a una alçada de 5000 ft
xàfecs de pluja

TAF: FIMR 211115Z 2112/2206 15020G32KT 9999 SCT017 TEMPO 2115/2203 7000 -SHRA FEW010 SCT015 BKN050

Observacions i pronòstics meteorològics de més de 4000 aeroports (METAR i TAF).

Les estacions disponibles són els punts grocs i vermells al mapa.

Posi el ratolí al punt desitjat per veure el nom de l'estació.

Feu clic per veure les observacions i els pronòstics meteorològics.

Per canviar el mapa: feu clic els botons verds amb una creu de color negre per apropar; al botó verd amb un guió per allunyar la imatge; o en les fletxes verdes per a mapes adjacents.


METAR-TAF: